createdAt,value
2018-04-23T00:00:12.193Z,4.10
2018-04-23T00:01:14.705Z,3.73
2018-04-23T00:02:17.193Z,3.90
2018-04-23T00:03:19.663Z,3.60
2018-04-23T00:04:22.153Z,3.50
2018-04-23T00:05:24.654Z,3.50
2018-04-23T00:06:27.162Z,4.20
2018-04-23T00:07:29.640Z,3.60
2018-04-23T00:08:32.195Z,3.50
2018-04-23T00:09:34.681Z,3.93
2018-04-23T00:10:37.176Z,3.90
2018-04-23T00:11:39.688Z,4.23
2018-04-23T00:12:42.163Z,3.53
2018-04-23T00:13:44.745Z,3.47
2018-04-23T00:14:47.217Z,3.40
2018-04-23T00:15:49.707Z,3.57
2018-04-23T00:16:52.231Z,3.40
2018-04-23T00:17:54.717Z,3.87
2018-04-23T00:18:57.223Z,3.47
2018-04-23T00:19:59.728Z,3.90
2018-04-23T00:21:02.220Z,3.40
2018-04-23T00:22:04.729Z,3.53
2018-04-23T00:23:07.228Z,3.93
2018-04-23T00:24:09.756Z,3.50
2018-04-23T00:25:12.242Z,3.60
2018-04-23T00:26:14.747Z,3.50
2018-04-23T00:27:17.276Z,3.27
2018-04-23T00:28:19.770Z,3.80
2018-04-23T00:29:22.271Z,3.87
2018-04-23T00:30:24.765Z,3.53
2018-04-23T00:31:27.266Z,3.30
2018-04-23T00:32:29.765Z,3.67
2018-04-23T00:33:32.253Z,3.70
2018-04-23T00:34:34.799Z,4.33
2018-04-23T00:35:37.303Z,3.67
2018-04-23T00:36:39.797Z,3.70
2018-04-23T00:37:42.289Z,3.50
2018-04-23T00:38:44.790Z,3.57
2018-04-23T00:39:47.279Z,3.50
2018-04-23T00:40:49.779Z,3.50
2018-04-23T00:41:52.251Z,3.40
2018-04-23T00:42:54.752Z,3.70
2018-04-23T00:43:57.259Z,3.70
2018-04-23T00:44:59.731Z,3.50
2018-04-23T00:46:02.269Z,3.80
2018-04-23T00:47:04.776Z,3.63
2018-04-23T00:48:07.330Z,3.40
2018-04-23T00:49:09.824Z,3.60
2018-04-23T00:50:12.328Z,3.43
2018-04-23T00:51:14.824Z,3.50
2018-04-23T00:52:17.329Z,3.40
2018-04-23T00:53:31.636Z,4.13
2018-04-23T00:54:34.133Z,3.50
2018-04-23T00:55:36.598Z,3.40
2018-04-23T00:56:39.105Z,3.70
2018-04-23T00:57:41.667Z,4.10
2018-04-23T00:58:44.230Z,3.50
2018-04-23T00:59:46.731Z,3.60
2018-04-23T01:00:49.246Z,3.60
2018-04-23T01:01:51.747Z,3.40
2018-04-23T01:02:54.249Z,3.33
2018-04-23T01:03:56.733Z,3.77
2018-04-23T01:04:59.254Z,3.73
2018-04-23T01:06:01.749Z,3.27
2018-04-23T01:07:04.251Z,3.70
2018-04-23T01:08:06.742Z,3.27
2018-04-23T01:09:09.317Z,3.67
2018-04-23T01:10:11.803Z,3.63
2018-04-23T01:11:14.286Z,3.23
2018-04-23T01:12:16.777Z,3.63
2018-04-23T01:13:19.353Z,3.30
2018-04-23T01:14:21.855Z,3.40
2018-04-23T01:15:24.370Z,3.90
2018-04-23T01:16:26.929Z,3.40
2018-04-23T01:17:29.491Z,3.50
2018-04-23T01:18:31.998Z,3.33
2018-04-23T01:19:34.512Z,3.43
2018-04-23T01:20:36.987Z,3.80
2018-04-23T01:21:39.514Z,3.10
2018-04-23T01:22:42.080Z,3.20
2018-04-23T01:23:44.575Z,3.30
2018-04-23T01:24:47.106Z,3.50
2018-04-23T01:25:49.669Z,3.80
2018-04-23T01:26:52.203Z,3.40
2018-04-23T01:27:54.686Z,3.20
2018-04-23T01:28:57.192Z,3.53
2018-04-23T01:29:59.700Z,2.90
2018-04-23T01:31:02.197Z,3.40
2018-04-23T01:32:04.716Z,3.00
2018-04-23T01:33:07.275Z,3.40
2018-04-23T01:34:09.789Z,3.30
2018-04-23T01:35:12.280Z,3.50
2018-04-23T01:36:14.776Z,3.20
2018-04-23T01:37:17.311Z,3.63
2018-04-23T01:38:19.828Z,3.47
2018-04-23T01:39:22.350Z,3.23
2018-04-23T01:40:24.889Z,3.50
2018-04-23T01:41:27.453Z,3.57
2018-04-23T01:42:29.951Z,3.30
2018-04-23T01:43:32.470Z,3.20
2018-04-23T01:44:34.963Z,3.10
2018-04-23T01:45:37.450Z,3.57
2018-04-23T01:46:40.046Z,3.40
2018-04-23T01:47:42.536Z,3.27
2018-04-23T01:48:45.041Z,3.30
2018-04-23T01:49:47.548Z,3.40
2018-04-23T01:50:50.034Z,3.70
2018-04-23T01:51:52.539Z,3.27
2018-04-23T01:52:55.099Z,3.50
2018-04-23T01:53:57.586Z,3.10
2018-04-23T01:55:00.116Z,3.23
2018-04-23T01:56:02.605Z,3.13
2018-04-23T01:57:05.086Z,3.30
2018-04-23T01:58:07.580Z,3.30
2018-04-23T01:59:10.078Z,3.10
2018-04-23T02:00:12.610Z,3.90
2018-04-23T02:01:15.121Z,3.40
2018-04-23T02:02:17.624Z,3.20
2018-04-23T02:03:20.120Z,3.30
2018-04-23T02:04:22.646Z,3.17
2018-04-23T02:05:25.163Z,2.97
2018-04-23T02:06:27.677Z,2.90
2018-04-23T02:07:30.182Z,3.10
2018-04-23T02:08:32.687Z,3.50
2018-04-23T02:09:35.172Z,3.40
2018-04-23T02:10:37.687Z,2.90
2018-04-23T02:11:40.172Z,3.60
2018-04-23T02:12:42.664Z,3.20
2018-04-23T02:13:45.172Z,3.10
2018-04-23T02:14:47.675Z,3.20
2018-04-23T02:15:50.190Z,3.50
2018-04-23T02:16:52.677Z,3.07
2018-04-23T02:17:55.166Z,2.67
2018-04-23T02:18:57.828Z,2.97
2018-04-23T02:20:00.335Z,3.47
2018-04-23T02:21:02.856Z,3.00
2018-04-23T02:22:05.376Z,3.53
2018-04-23T02:23:07.971Z,3.17
2018-04-23T02:24:10.486Z,3.20
2018-04-23T02:25:12.959Z,3.47
2018-04-23T02:26:15.469Z,3.43
2018-04-23T02:27:17.958Z,3.23
2018-04-23T02:28:20.468Z,3.00
2018-04-23T02:29:22.965Z,3.10
2018-04-23T02:30:25.448Z,3.40
2018-04-23T02:31:27.938Z,3.17
2018-04-23T02:32:30.428Z,2.67
2018-04-23T02:33:32.908Z,2.80
2018-04-23T02:34:35.397Z,3.27
2018-04-23T02:35:37.894Z,3.23
2018-04-23T02:36:40.419Z,2.80
2018-04-23T02:37:42.917Z,2.80
2018-04-23T02:38:45.401Z,2.90
2018-04-23T02:39:47.904Z,3.10
2018-04-23T02:40:50.390Z,3.20
2018-04-23T02:41:52.939Z,3.10
2018-04-23T02:42:55.534Z,3.20
2018-04-23T02:43:58.032Z,3.20
2018-04-23T02:45:00.517Z,3.00
2018-04-23T02:46:03.021Z,3.13
2018-04-23T02:47:05.536Z,3.10
2018-04-23T02:48:08.032Z,3.10
2018-04-23T02:49:10.589Z,2.60
2018-04-23T02:50:13.079Z,2.50
2018-04-23T02:51:15.575Z,2.90
2018-04-23T02:52:18.067Z,3.23
2018-04-23T02:53:20.556Z,3.13
2018-04-23T02:54:23.045Z,3.00
2018-04-23T02:55:25.552Z,3.27
2018-04-23T02:56:28.068Z,3.13
2018-04-23T02:57:30.559Z,3.03
2018-04-23T02:58:33.063Z,3.33
2018-04-23T02:59:35.557Z,3.07
2018-04-23T03:00:38.050Z,3.00
2018-04-23T03:01:40.553Z,3.00
2018-04-23T03:02:43.129Z,3.27
2018-04-23T03:03:45.588Z,3.33
2018-04-23T03:04:48.091Z,3.13
2018-04-23T03:05:50.595Z,2.63
2018-04-23T03:06:53.187Z,3.27
2018-04-23T03:07:55.681Z,3.07
2018-04-23T03:08:58.201Z,2.90
2018-04-23T03:10:00.678Z,3.00
2018-04-23T03:11:03.226Z,2.90
2018-04-23T03:12:05.780Z,3.20
2018-04-23T03:13:08.334Z,3.10
2018-04-23T03:14:10.817Z,3.00
2018-04-23T03:15:13.356Z,2.40
2018-04-23T03:16:15.919Z,3.40
2018-04-23T03:17:18.429Z,2.80
2018-04-23T03:18:20.930Z,2.90
2018-04-23T03:19:23.417Z,3.27
2018-04-23T03:20:25.951Z,2.40
2018-04-23T03:21:28.454Z,2.90
2018-04-23T03:22:30.969Z,2.50
2018-04-23T03:23:33.467Z,2.43
2018-04-23T03:24:35.942Z,2.80
2018-04-23T03:25:38.430Z,3.10
2018-04-23T03:26:40.921Z,2.77
2018-04-23T03:27:43.436Z,3.33
2018-04-23T03:28:46.019Z,3.30
2018-04-23T03:29:48.509Z,2.97
2018-04-23T03:30:51.040Z,2.90
2018-04-23T03:31:53.546Z,2.70
2018-04-23T03:32:56.158Z,2.57
2018-04-23T03:33:58.644Z,3.00
2018-04-23T03:35:01.147Z,3.20
2018-04-23T03:36:03.702Z,3.20
2018-04-23T03:37:06.209Z,2.80
2018-04-23T03:38:08.759Z,2.80
2018-04-23T03:39:11.248Z,2.67
2018-04-23T03:40:13.751Z,3.00
2018-04-23T03:41:16.227Z,2.70
2018-04-23T03:42:18.732Z,2.60
2018-04-23T03:43:21.237Z,2.77
2018-04-23T03:44:23.759Z,2.40
2018-04-23T03:45:26.259Z,2.80
2018-04-23T03:46:28.746Z,2.63
2018-04-23T03:47:31.218Z,2.60
2018-04-23T03:48:33.729Z,2.63
2018-04-23T03:49:36.213Z,2.90
2018-04-23T03:50:38.698Z,2.80
2018-04-23T03:51:41.184Z,2.87
2018-04-23T03:52:43.674Z,2.87
2018-04-23T03:53:46.234Z,2.60
2018-04-23T03:54:48.720Z,2.83
2018-04-23T03:55:51.205Z,2.80
2018-04-23T03:56:53.796Z,2.57
2018-04-23T03:57:56.306Z,3.17
2018-04-23T03:58:58.791Z,2.80
2018-04-23T04:00:01.263Z,3.00
2018-04-23T04:01:03.766Z,2.70
2018-04-23T04:02:06.262Z,2.67
2018-04-23T04:03:08.744Z,2.93
2018-04-23T04:04:11.271Z,2.90
2018-04-23T04:05:13.781Z,2.90
2018-04-23T04:06:16.288Z,2.33
2018-04-23T04:07:18.781Z,2.77
2018-04-23T04:08:21.272Z,2.67
2018-04-23T04:09:23.825Z,2.90
2018-04-23T04:10:26.289Z,2.90
2018-04-23T04:11:28.790Z,2.83
2018-04-23T04:12:43.114Z,2.70
2018-04-23T04:13:57.301Z,2.50
2018-04-23T04:15:11.503Z,2.77
2018-04-23T04:16:25.785Z,2.90
2018-04-23T04:19:06.042Z,2.30
2018-04-23T04:20:08.529Z,2.33
2018-04-23T04:21:11.039Z,2.67
2018-04-23T04:22:13.533Z,2.67
2018-04-23T04:23:16.043Z,2.63
2018-04-23T04:24:18.555Z,2.43
2018-04-23T04:25:21.047Z,2.30
2018-04-23T04:26:23.537Z,2.40
2018-04-23T04:27:26.037Z,2.87
2018-04-23T04:28:28.542Z,2.83
2018-04-23T04:29:31.047Z,2.57
2018-04-23T04:30:33.543Z,2.60
2018-04-23T04:31:36.115Z,2.80
2018-04-23T04:32:38.606Z,2.67
2018-04-23T04:33:41.093Z,2.60
2018-04-23T04:34:43.601Z,2.60
2018-04-23T04:35:46.113Z,2.70
2018-04-23T04:36:48.596Z,2.20
2018-04-23T04:37:51.167Z,2.60
2018-04-23T04:38:53.661Z,2.67
2018-04-23T04:39:56.185Z,2.30
2018-04-23T04:40:58.712Z,2.70
2018-04-23T04:42:01.229Z,2.60
2018-04-23T04:43:03.722Z,2.67
2018-04-23T04:44:06.208Z,2.50
2018-04-23T04:45:08.691Z,2.50
2018-04-23T04:46:11.197Z,2.70
2018-04-23T04:47:13.797Z,2.77
2018-04-23T04:48:16.285Z,2.23
2018-04-23T04:49:18.792Z,2.60
2018-04-23T04:50:21.374Z,2.60
2018-04-23T04:51:23.882Z,2.80
2018-04-23T04:52:26.380Z,2.37
2018-04-23T04:53:28.866Z,2.90
2018-04-23T04:54:31.343Z,2.60
2018-04-23T04:55:33.841Z,2.40
2018-04-23T04:56:36.345Z,2.80
2018-04-23T04:57:38.837Z,2.40
2018-04-23T04:58:41.342Z,2.47
2018-04-23T04:59:43.831Z,2.57
2018-04-23T05:00:46.361Z,2.63
2018-04-23T05:01:48.847Z,2.60
2018-04-23T05:02:51.382Z,2.60
2018-04-23T05:03:54.435Z,2.07
2018-04-23T05:04:56.922Z,2.40
2018-04-23T05:05:59.396Z,2.43
2018-04-23T05:07:01.929Z,2.63
2018-04-23T05:08:04.490Z,2.40
2018-04-23T05:09:06.985Z,2.27
2018-04-23T05:10:09.511Z,2.37
2018-04-23T05:11:12.070Z,2.23
2018-04-23T05:12:14.554Z,2.63
2018-04-23T05:13:17.038Z,2.73
2018-04-23T05:14:19.539Z,2.57
2018-04-23T05:15:22.047Z,2.30
2018-04-23T05:16:24.542Z,2.70
2018-04-23T05:17:27.121Z,2.40
2018-04-23T05:18:29.680Z,2.40
2018-04-23T05:19:32.192Z,2.60
2018-04-23T05:20:34.696Z,2.23
2018-04-23T05:21:37.233Z,2.30
2018-04-23T05:22:39.742Z,2.57
2018-04-23T05:23:42.336Z,2.70
2018-04-23T05:24:44.800Z,2.73
2018-04-23T05:25:47.373Z,2.47
2018-04-23T05:26:49.843Z,2.37
2018-04-23T05:27:52.352Z,2.50
2018-04-23T05:28:54.856Z,2.43
2018-04-23T05:29:57.465Z,2.40
2018-04-23T05:30:59.990Z,2.27
2018-04-23T05:32:02.464Z,2.37
2018-04-23T05:33:04.950Z,2.07
2018-04-23T05:34:07.442Z,2.47
2018-04-23T05:35:09.932Z,2.60
2018-04-23T05:36:12.435Z,2.60
2018-04-23T05:37:14.927Z,2.40
2018-04-23T05:38:17.444Z,2.60
2018-04-23T05:39:19.940Z,2.70
2018-04-23T05:40:22.519Z,2.53
2018-04-23T05:41:25.089Z,2.70
2018-04-23T05:42:27.950Z,2.40
2018-04-23T05:43:30.436Z,2.20
2018-04-23T05:44:32.924Z,2.17
2018-04-23T05:45:35.451Z,2.30
2018-04-23T05:46:37.945Z,2.60
2018-04-23T05:47:40.450Z,2.40
2018-04-23T05:48:42.977Z,2.07
2018-04-23T05:49:45.465Z,2.20
2018-04-23T05:50:47.954Z,2.57
2018-04-23T05:51:50.473Z,2.80
2018-04-23T05:52:53.025Z,2.50
2018-04-23T05:53:55.533Z,2.50
2018-04-23T05:54:58.058Z,2.20
2018-04-23T05:56:00.616Z,2.13
2018-04-23T05:57:03.113Z,2.20
2018-04-23T05:58:05.615Z,2.30
2018-04-23T05:59:08.140Z,2.07
2018-04-23T06:00:10.723Z,2.50
2018-04-23T06:01:13.213Z,2.53
2018-04-23T06:02:15.705Z,2.60
2018-04-23T06:03:18.212Z,2.20
2018-04-23T06:04:20.715Z,3.00
2018-04-23T06:05:23.205Z,2.33
2018-04-23T06:06:25.678Z,2.13
2018-04-23T06:07:28.189Z,2.40
2018-04-23T06:08:30.692Z,2.50
2018-04-23T06:09:33.216Z,2.67
2018-04-23T06:10:35.739Z,2.90
2018-04-23T06:11:38.245Z,2.60
2018-04-23T06:12:40.751Z,2.17
2018-04-23T06:13:43.307Z,2.20
2018-04-23T06:14:45.796Z,2.37
2018-04-23T06:15:48.285Z,3.00
2018-04-23T06:16:50.778Z,2.23
2018-04-23T06:17:53.284Z,2.37
2018-04-23T06:18:55.775Z,2.30
2018-04-23T06:19:58.253Z,2.17
2018-04-23T06:21:00.872Z,2.60
2018-04-23T06:22:03.365Z,2.40
2018-04-23T06:23:05.856Z,1.90
2018-04-23T06:24:08.383Z,2.20
2018-04-23T06:25:10.872Z,2.27
2018-04-23T06:26:13.416Z,2.07
2018-04-23T06:27:15.925Z,2.30
2018-04-23T06:28:18.427Z,2.27
2018-04-23T06:29:20.928Z,2.33
2018-04-23T06:30:23.407Z,2.27
2018-04-23T06:31:25.900Z,2.13
2018-04-23T06:32:28.407Z,2.00
2018-04-23T06:33:30.901Z,2.27
2018-04-23T06:34:33.451Z,2.20
2018-04-23T06:35:35.922Z,2.60
2018-04-23T06:36:38.414Z,2.47
2018-04-23T06:37:40.897Z,2.30
2018-04-23T06:38:43.404Z,2.20
2018-04-23T06:39:45.894Z,2.53
2018-04-23T06:40:48.377Z,2.13
2018-04-23T06:41:50.869Z,2.13
2018-04-23T06:42:53.416Z,2.33
2018-04-23T06:43:55.908Z,3.00
2018-04-23T06:44:58.436Z,2.27
2018-04-23T06:46:00.911Z,2.10
2018-04-23T06:47:03.415Z,2.40
2018-04-23T06:48:05.905Z,2.33
2018-04-23T06:49:08.399Z,2.07
2018-04-23T06:50:10.929Z,2.10
2018-04-23T06:51:13.417Z,2.57
2018-04-23T06:52:15.901Z,2.50
2018-04-23T06:53:18.389Z,1.87
2018-04-23T06:54:20.900Z,2.40
2018-04-23T06:55:23.438Z,2.30
2018-04-23T06:56:25.929Z,2.17
2018-04-23T06:57:28.426Z,2.20
2018-04-23T06:58:30.937Z,2.13
2018-04-23T06:59:33.429Z,2.00
2018-04-23T07:00:35.923Z,2.57
2018-04-23T07:01:38.417Z,2.50
2018-04-23T07:02:40.917Z,1.97
2018-04-23T07:03:43.423Z,2.27
2018-04-23T07:04:45.957Z,2.03
2018-04-23T07:05:48.558Z,2.20
2018-04-23T07:06:51.063Z,2.40
2018-04-23T07:07:53.558Z,2.70
2018-04-23T07:08:56.057Z,2.17
2018-04-23T07:09:58.564Z,2.47
2018-04-23T07:11:01.091Z,2.73
2018-04-23T07:12:03.595Z,2.27
2018-04-23T07:13:06.083Z,1.83
2018-04-23T07:14:08.577Z,2.00
2018-04-23T07:15:11.069Z,2.07
2018-04-23T07:16:13.575Z,2.43
2018-04-23T07:17:16.061Z,2.43
2018-04-23T07:18:18.548Z,2.03
2018-04-23T07:19:21.117Z,2.73
2018-04-23T07:20:23.610Z,2.90
2018-04-23T07:21:26.116Z,3.00
2018-04-23T07:22:28.605Z,2.73
2018-04-23T07:23:31.094Z,3.00
2018-04-23T07:24:33.619Z,3.67
2018-04-23T07:25:36.113Z,3.70
2018-04-23T07:26:38.664Z,3.30
2018-04-23T07:27:41.157Z,3.77
2018-04-23T07:28:43.650Z,3.53
2018-04-23T07:29:46.138Z,4.30
2018-04-23T07:30:48.648Z,5.83
2018-04-23T07:31:51.150Z,4.97
2018-04-23T07:32:53.657Z,5.30
2018-04-23T07:33:56.145Z,5.30
2018-04-23T07:34:58.623Z,5.13
2018-04-23T07:36:01.109Z,5.40
2018-04-23T07:37:03.655Z,5.70
2018-04-23T07:38:06.139Z,5.97
2018-04-23T07:39:08.614Z,5.43
2018-04-23T07:40:11.123Z,6.33
2018-04-23T07:41:13.600Z,6.03
2018-04-23T07:42:16.218Z,6.37
2018-04-23T07:43:18.698Z,6.37
2018-04-23T07:44:21.204Z,6.77
2018-04-23T07:45:23.701Z,6.37
2018-04-23T07:46:26.215Z,6.60
2018-04-23T07:47:28.719Z,6.77
2018-04-23T07:48:31.211Z,6.80
2018-04-23T07:49:33.713Z,6.37
2018-04-23T07:50:36.229Z,6.60
2018-04-23T07:51:38.724Z,6.47
2018-04-23T07:52:41.277Z,6.70
2018-04-23T07:53:43.768Z,6.33
2018-04-23T07:54:46.262Z,5.50
2018-04-23T07:55:48.758Z,5.93
2018-04-23T07:56:51.234Z,5.97
2018-04-23T07:57:53.782Z,5.33
2018-04-23T07:58:56.299Z,5.93
2018-04-23T07:59:58.812Z,5.30
2018-04-23T08:01:01.377Z,6.27
2018-04-23T08:02:03.888Z,5.50
2018-04-23T08:03:06.375Z,6.07
2018-04-23T08:04:08.871Z,4.87
2018-04-23T08:05:11.365Z,5.23
2018-04-23T08:06:13.850Z,5.33
2018-04-23T08:07:16.379Z,5.20
2018-04-23T08:08:18.868Z,5.10
2018-04-23T08:09:21.375Z,5.13
2018-04-23T08:10:23.895Z,4.73
2018-04-23T08:11:26.467Z,5.03
2018-04-23T08:12:29.024Z,3.97
2018-04-23T08:13:31.522Z,5.30
2018-04-23T08:14:34.102Z,4.57
2018-04-23T08:15:36.595Z,4.70
2018-04-23T08:16:39.095Z,4.63
2018-04-23T08:17:41.603Z,4.50
2018-04-23T08:18:44.121Z,4.83
2018-04-23T08:19:46.657Z,4.00
2018-04-23T08:20:49.130Z,3.90
2018-04-23T08:21:51.617Z,4.30
2018-04-23T08:22:54.134Z,5.03
2018-04-23T08:23:56.627Z,3.87
2018-04-23T08:24:59.125Z,4.60
2018-04-23T08:26:01.622Z,4.30
2018-04-23T08:27:04.118Z,4.17
2018-04-23T08:28:06.628Z,4.03
2018-04-23T08:29:09.126Z,4.13
2018-04-23T08:30:11.636Z,3.87
2018-04-23T08:31:14.144Z,3.90
2018-04-23T08:32:16.637Z,4.27
2018-04-23T08:33:19.168Z,4.40
2018-04-23T08:34:21.657Z,4.03
2018-04-23T08:35:24.165Z,3.87
2018-04-23T08:36:26.667Z,4.50
2018-04-23T08:37:29.185Z,4.00
2018-04-23T08:38:31.704Z,3.70
2018-04-23T08:39:34.205Z,3.87
2018-04-23T08:40:36.711Z,3.73
2018-04-23T08:41:39.191Z,3.97
2018-04-23T08:42:41.681Z,4.30
2018-04-23T08:43:44.225Z,3.87
2018-04-23T08:44:46.696Z,4.77
2018-04-23T08:45:49.246Z,4.27
2018-04-23T08:46:51.774Z,4.23
2018-04-23T08:47:54.293Z,3.60
2018-04-23T08:48:56.867Z,3.83
2018-04-23T08:49:59.332Z,4.57
2018-04-23T08:51:01.807Z,3.90
2018-04-23T08:52:04.345Z,4.37
2018-04-23T08:53:06.845Z,4.30
2018-04-23T08:54:09.335Z,4.20
2018-04-23T08:55:11.839Z,3.73
2018-04-23T08:56:14.323Z,4.20
2018-04-23T08:57:16.857Z,3.83
2018-04-23T08:58:19.359Z,3.90
2018-04-23T08:59:21.883Z,4.20
2018-04-23T09:00:24.359Z,3.80
2018-04-23T09:01:26.861Z,3.90
2018-04-23T09:02:29.390Z,4.70
2018-04-23T09:03:31.897Z,4.33
2018-04-23T09:04:34.395Z,4.17
2018-04-23T09:05:36.928Z,3.87
2018-04-23T09:06:39.486Z,3.67
2018-04-23T09:07:42.043Z,4.00
2018-04-23T09:08:44.608Z,3.93
2018-04-23T09:09:47.168Z,3.70
2018-04-23T09:10:49.647Z,4.13
2018-04-23T09:11:52.187Z,4.10
2018-04-23T09:12:54.677Z,4.20
2018-04-23T09:13:57.206Z,3.73
2018-04-23T09:14:59.725Z,3.87
2018-04-23T09:16:02.200Z,3.73
2018-04-23T09:17:04.708Z,4.40
2018-04-23T09:18:07.223Z,4.00
2018-04-23T09:19:09.746Z,3.77
2018-04-23T09:20:12.270Z,3.97
2018-04-23T09:21:14.761Z,4.63
2018-04-23T09:22:17.268Z,4.13
2018-04-23T09:23:19.756Z,4.20
2018-04-23T09:24:22.296Z,4.77
2018-04-23T09:25:24.851Z,4.10
2018-04-23T09:26:27.347Z,4.60
2018-04-23T09:27:29.875Z,3.57
2018-04-23T09:28:32.380Z,3.70
2018-04-23T09:29:34.886Z,4.03
2018-04-23T09:30:37.448Z,4.00
2018-04-23T09:31:40.044Z,3.50
2018-04-23T09:32:42.506Z,4.03
2018-04-23T09:33:44.990Z,4.10
2018-04-23T09:34:47.541Z,3.90
2018-04-23T09:35:50.142Z,3.80
2018-04-23T09:36:52.628Z,3.60
2018-04-23T09:37:55.151Z,4.40
2018-04-23T09:38:57.761Z,4.00
2018-04-23T09:40:00.219Z,3.53
2018-04-23T09:41:02.755Z,3.70
2018-04-23T09:42:05.248Z,4.33
2018-04-23T09:43:07.723Z,4.00
2018-04-23T09:44:10.231Z,3.60
2018-04-23T09:45:12.721Z,3.60
2018-04-23T09:46:15.242Z,3.43
2018-04-23T09:47:17.733Z,4.17
2018-04-23T09:48:20.223Z,4.03
2018-04-23T09:49:22.699Z,3.80
2018-04-23T09:50:25.175Z,5.00
2018-04-23T09:51:27.685Z,3.90
2018-04-23T09:52:30.173Z,4.20
2018-04-23T09:53:32.665Z,3.83
2018-04-23T09:54:35.155Z,4.23
2018-04-23T09:55:37.658Z,4.20
2018-04-23T09:56:40.169Z,3.60
2018-04-23T09:57:42.675Z,3.57
2018-04-23T09:58:45.177Z,3.83
2018-04-23T09:59:47.660Z,3.93
2018-04-23T10:00:50.152Z,3.80
2018-04-23T10:01:52.665Z,3.87
2018-04-23T10:02:55.172Z,3.53
2018-04-23T10:04:03.121Z,3.57
2018-04-23T10:05:05.715Z,3.30
2018-04-23T10:06:08.216Z,3.80
2018-04-23T10:07:10.733Z,4.13
2018-04-23T10:08:13.225Z,4.20
2018-04-23T10:09:15.738Z,3.67
2018-04-23T10:10:18.232Z,3.47
2018-04-23T10:11:20.698Z,4.00
2018-04-23T10:12:23.202Z,3.60
2018-04-23T10:13:25.697Z,3.70
2018-04-23T10:14:28.189Z,3.03
2018-04-23T10:15:30.811Z,3.70
2018-04-23T10:16:33.304Z,3.23
2018-04-23T10:17:35.819Z,3.80
2018-04-23T10:18:38.386Z,3.83
2018-04-23T10:19:40.946Z,3.30
2018-04-23T10:20:43.507Z,4.00
2018-04-23T10:21:45.986Z,3.80
2018-04-23T10:22:48.510Z,3.80
2018-04-23T10:23:51.000Z,3.47
2018-04-23T10:24:53.501Z,3.47
2018-04-23T10:25:55.994Z,3.40
2018-04-23T10:26:58.490Z,3.50
2018-04-23T10:28:00.982Z,4.57
2018-04-23T10:29:04.216Z,3.47
2018-04-23T10:30:06.706Z,3.87
2018-04-23T10:31:09.208Z,3.67
2018-04-23T10:32:11.698Z,3.17
2018-04-23T10:33:14.225Z,3.80
2018-04-23T10:34:16.740Z,3.80
2018-04-23T10:35:19.234Z,3.33
2018-04-23T10:36:21.808Z,3.60
2018-04-23T10:37:24.368Z,3.37
2018-04-23T10:38:26.926Z,3.77
2018-04-23T10:39:29.488Z,3.30
2018-04-23T10:40:32.048Z,3.13
2018-04-23T10:41:34.610Z,3.23
2018-04-23T10:42:37.142Z,3.53
2018-04-23T10:43:39.725Z,3.43
2018-04-23T10:44:42.228Z,4.13
2018-04-23T10:45:44.717Z,3.43
2018-04-23T10:46:47.200Z,3.13
2018-04-23T10:47:49.721Z,3.50
2018-04-23T10:48:52.309Z,3.43
2018-04-23T10:49:54.825Z,3.10
2018-04-23T10:50:57.331Z,3.47
2018-04-23T10:51:59.838Z,3.23
2018-04-23T10:53:02.315Z,3.47
2018-04-23T10:54:04.829Z,3.67
2018-04-23T10:55:07.302Z,3.60
2018-04-23T10:56:09.839Z,3.47
2018-04-23T10:57:12.319Z,3.20
2018-04-23T10:58:14.850Z,3.80
2018-04-23T10:59:17.414Z,3.70
2018-04-23T11:00:19.904Z,3.40
2018-04-23T11:01:22.382Z,3.13
2018-04-23T11:02:24.919Z,3.50
2018-04-23T11:03:27.489Z,3.33
2018-04-23T11:04:29.992Z,3.30
2018-04-23T11:05:32.501Z,3.50
2018-04-23T11:06:34.995Z,3.43
2018-04-23T11:07:37.590Z,3.00
2018-04-23T11:08:40.143Z,3.30
2018-04-23T11:09:42.738Z,3.43
2018-04-23T11:10:45.236Z,3.40
2018-04-23T11:11:47.719Z,3.03
2018-04-23T11:12:50.220Z,3.37
2018-04-23T11:13:52.730Z,3.30
2018-04-23T11:14:55.230Z,3.33
2018-04-23T11:15:57.760Z,3.40
2018-04-23T11:17:00.248Z,2.80
2018-04-23T11:18:02.783Z,3.00
2018-04-23T11:19:05.285Z,3.63
2018-04-23T11:20:07.813Z,3.47
2018-04-23T11:21:10.352Z,3.20
2018-04-23T11:22:12.915Z,3.30
2018-04-23T11:23:15.407Z,2.80
2018-04-23T11:24:17.930Z,2.83
2018-04-23T11:25:20.494Z,3.10
2018-04-23T11:26:23.052Z,3.70
2018-04-23T11:27:25.529Z,3.20
2018-04-23T11:28:28.038Z,3.30
2018-04-23T11:29:30.535Z,3.57
2018-04-23T11:30:33.075Z,3.60
2018-04-23T11:31:35.549Z,3.43
2018-04-23T11:32:38.027Z,3.20
2018-04-23T11:33:40.495Z,3.30
2018-04-23T11:34:44.032Z,3.37
2018-04-23T11:35:46.606Z,3.43
2018-04-23T11:36:49.167Z,3.33
2018-04-23T11:37:51.742Z,2.80
2018-04-23T11:38:54.218Z,3.00
2018-04-23T11:39:56.803Z,3.50
2018-04-23T11:40:59.346Z,3.13
2018-04-23T11:42:01.834Z,3.07
2018-04-23T11:43:04.309Z,3.50
2018-04-23T11:44:06.792Z,3.10
2018-04-23T11:45:09.362Z,3.17
2018-04-23T11:46:11.817Z,3.10
2018-04-23T11:47:14.312Z,3.17
2018-04-23T11:48:16.818Z,3.67
2018-04-23T11:49:19.326Z,3.30
2018-04-23T11:50:21.806Z,3.57
2018-04-23T11:51:24.314Z,3.40
2018-04-23T11:52:26.827Z,3.70
2018-04-23T11:53:29.373Z,3.40
2018-04-23T11:54:32.236Z,3.50
2018-04-23T11:55:34.741Z,3.40
2018-04-23T11:56:37.273Z,3.17
2018-04-23T11:57:39.774Z,3.47
2018-04-23T11:58:42.572Z,3.60
2018-04-23T11:59:45.137Z,2.90
2018-04-23T12:00:47.624Z,3.10
2018-04-23T12:01:50.133Z,3.30
2018-04-23T12:02:52.631Z,3.00
2018-04-23T12:03:55.138Z,3.43
2018-04-23T12:04:57.651Z,3.37
2018-04-23T12:06:00.161Z,3.00
2018-04-23T12:07:02.667Z,3.00
2018-04-23T12:08:05.166Z,3.23
2018-04-23T12:09:07.671Z,3.37
2018-04-23T12:10:10.161Z,3.50
2018-04-23T12:11:12.680Z,3.37
2018-04-23T12:12:15.159Z,2.80
2018-04-23T12:13:17.635Z,2.63
2018-04-23T12:14:20.125Z,3.13
2018-04-23T12:15:22.631Z,3.50
2018-04-23T12:16:25.129Z,3.10
2018-04-23T12:17:27.632Z,2.90
2018-04-23T12:18:30.135Z,3.23
2018-04-23T12:19:32.629Z,2.57
2018-04-23T12:20:35.108Z,3.27
2018-04-23T12:21:37.642Z,3.00
2018-04-23T12:22:40.145Z,3.20
2018-04-23T12:23:42.662Z,2.97
2018-04-23T12:24:45.141Z,2.97
2018-04-23T12:25:47.616Z,3.10
2018-04-23T12:26:50.149Z,2.87
2018-04-23T12:27:52.641Z,3.03
2018-04-23T12:28:55.140Z,3.20
2018-04-23T12:29:57.629Z,3.00
2018-04-23T12:31:00.131Z,3.10
2018-04-23T12:32:02.638Z,2.80
2018-04-23T12:33:05.125Z,2.77
2018-04-23T12:34:07.644Z,3.07
2018-04-23T12:35:10.128Z,3.20
2018-04-23T12:36:12.631Z,3.00
2018-04-23T12:37:15.141Z,3.27
2018-04-23T12:38:17.647Z,3.57
2018-04-23T12:39:20.142Z,2.97
2018-04-23T12:40:22.638Z,2.83
2018-04-23T12:41:25.152Z,3.20
2018-04-23T12:42:27.662Z,2.90
2018-04-23T12:43:30.172Z,3.20
2018-04-23T12:44:32.662Z,3.13
2018-04-23T12:45:35.172Z,2.87
2018-04-23T12:46:37.675Z,2.87
2018-04-23T12:47:40.170Z,2.80
2018-04-23T12:48:42.665Z,2.90
2018-04-23T12:49:45.152Z,2.77
2018-04-23T12:50:47.713Z,2.70
2018-04-23T12:51:50.220Z,2.80
2018-04-23T12:52:52.729Z,3.37
2018-04-23T12:53:55.206Z,3.77
2018-04-23T12:54:57.867Z,2.80
2018-04-23T12:56:00.430Z,3.07
2018-04-23T12:57:02.946Z,3.00
2018-04-23T12:58:05.454Z,3.00
2018-04-23T12:59:07.941Z,2.80
2018-04-23T13:00:10.451Z,2.73
2018-04-23T13:01:12.946Z,2.60
2018-04-23T13:02:15.599Z,2.80
2018-04-23T13:03:18.111Z,2.90
2018-04-23T13:04:20.625Z,3.50
2018-04-23T13:05:23.090Z,3.20
2018-04-23T13:06:25.567Z,2.97
2018-04-23T13:07:28.039Z,2.50
2018-04-23T13:08:30.532Z,2.80
2018-04-23T13:09:33.029Z,2.90
2018-04-23T13:10:35.532Z,2.60
2018-04-23T13:11:38.025Z,2.83
2018-04-23T13:12:40.725Z,2.90
2018-04-23T13:13:43.263Z,3.40
2018-04-23T13:14:45.764Z,2.80
2018-04-23T13:15:48.247Z,3.30
2018-04-23T13:16:50.757Z,2.77
2018-04-23T13:17:53.318Z,3.13
2018-04-23T13:18:55.839Z,3.13
2018-04-23T13:19:58.341Z,3.00
2018-04-23T13:21:00.951Z,2.90
2018-04-23T13:22:03.471Z,2.90
2018-04-23T13:23:05.984Z,2.63
2018-04-23T13:24:08.482Z,2.70
2018-04-23T13:25:10.989Z,3.03
2018-04-23T13:26:13.480Z,3.10
2018-04-23T13:27:15.974Z,3.27
2018-04-23T13:28:18.450Z,3.13
2018-04-23T13:29:20.993Z,2.90
2018-04-23T13:30:23.487Z,2.90
2018-04-23T13:31:26.020Z,2.70
2018-04-23T13:32:28.485Z,2.90
2018-04-23T13:33:30.996Z,2.60
2018-04-23T13:34:33.543Z,3.03
2018-04-23T13:35:37.224Z,3.13
2018-04-23T13:36:40.119Z,2.97
2018-04-23T13:37:44.627Z,3.00
2018-04-23T13:38:47.124Z,3.03
2018-04-23T13:39:49.653Z,2.97
2018-04-23T13:40:52.130Z,3.23
2018-04-23T13:41:54.608Z,2.73
2018-04-23T13:42:57.079Z,3.33
2018-04-23T13:43:59.625Z,2.83
2018-04-23T13:45:02.144Z,2.60
2018-04-23T13:46:04.649Z,2.60
2018-04-23T13:47:07.163Z,2.50
2018-04-23T13:48:09.657Z,2.80
2018-04-23T13:49:12.135Z,3.03
2018-04-23T13:50:14.712Z,3.10
2018-04-23T13:51:17.202Z,2.90
2018-04-23T13:52:19.728Z,3.00
2018-04-23T13:53:22.224Z,2.90
2018-04-23T13:54:24.702Z,3.27